createdAt,value
2022-11-29T00:01:26.096Z,15.88
2022-11-29T00:06:26.795Z,15.80
2022-11-29T00:11:41.478Z,14.48
2022-11-29T00:16:42.874Z,14.50
2022-11-29T00:21:40.140Z,13.05
2022-11-29T00:26:37.340Z,14.43
2022-11-29T00:31:35.331Z,13.45
2022-11-29T00:36:38.576Z,15.60
2022-11-29T00:41:36.687Z,15.70
2022-11-29T00:46:33.747Z,15.45
2022-11-29T00:51:30.779Z,15.27
2022-11-29T00:56:29.490Z,15.45
2022-11-29T01:01:26.872Z,16.42
2022-11-29T01:06:23.941Z,16.00
2022-11-29T01:11:23.233Z,13.45
2022-11-29T01:16:21.740Z,16.25
2022-11-29T01:21:21.643Z,16.42
2022-11-29T01:26:21.630Z,14.82
2022-11-29T01:31:21.136Z,17.15
2022-11-29T01:36:19.224Z,14.32
2022-11-29T01:41:20.791Z,16.77
2022-11-29T01:46:17.883Z,14.57
2022-11-29T01:51:15.901Z,16.75
2022-11-29T01:56:15.711Z,15.18
2022-11-29T02:01:14.100Z,15.13
2022-11-29T02:06:11.249Z,14.70
2022-11-29T02:11:44.504Z,13.93
2022-11-29T02:16:56.542Z,14.55
2022-11-29T02:21:58.122Z,17.90
2022-11-29T02:27:18.287Z,20.40
2022-11-29T02:32:44.260Z,17.77
2022-11-29T02:37:58.563Z,16.55
2022-11-29T02:43:14.812Z,17.92
2022-11-29T02:48:33.120Z,18.77
2022-11-29T02:53:38.285Z,16.25
2022-11-29T02:58:43.926Z,15.07
2022-11-29T03:03:46.948Z,15.35
2022-11-29T03:08:52.276Z,16.48
2022-11-29T03:13:56.105Z,18.08
2022-11-29T03:19:05.366Z,15.57
2022-11-29T03:24:08.206Z,15.07
2022-11-29T03:29:20.299Z,15.32
2022-11-29T03:34:25.424Z,17.98
2022-11-29T03:39:33.186Z,15.90
2022-11-29T03:44:35.784Z,18.25
2022-11-29T03:49:41.353Z,19.52
2022-11-29T03:54:50.961Z,16.77
2022-11-29T04:00:02.041Z,18.42
2022-11-29T04:05:47.776Z,17.92
2022-11-29T04:11:05.971Z,15.70
2022-11-29T04:16:31.880Z,15.52
2022-11-29T04:21:56.060Z,14.32
2022-11-29T04:27:19.464Z,18.85
2022-11-29T04:32:39.837Z,16.35
2022-11-29T04:38:25.947Z,17.65
2022-11-29T04:43:47.383Z,15.85
2022-11-29T04:49:02.083Z,14.00
2022-11-29T04:54:13.353Z,17.75
2022-11-29T04:59:18.742Z,19.65
2022-11-29T05:04:21.782Z,18.40
2022-11-29T05:09:28.947Z,20.90
2022-11-29T05:14:40.723Z,16.88
2022-11-29T05:19:52.507Z,15.60
2022-11-29T05:25:00.978Z,16.15
2022-11-29T05:30:03.387Z,16.90
2022-11-29T05:35:16.834Z,19.20
2022-11-29T05:40:44.731Z,16.10
2022-11-29T05:45:49.350Z,20.23
2022-11-29T05:50:54.663Z,19.52
2022-11-29T05:56:04.876Z,19.55
2022-11-29T06:01:29.106Z,24.88
2022-11-29T06:06:46.013Z,19.38
2022-11-29T06:11:47.601Z,20.13
2022-11-29T06:17:19.745Z,18.20
2022-11-29T06:22:43.042Z,20.58
2022-11-29T06:28:01.838Z,21.05
2022-11-29T06:33:05.838Z,19.67
2022-11-29T06:38:12.452Z,20.42
2022-11-29T06:43:14.296Z,22.13
2022-11-29T06:48:16.083Z,20.92
2022-11-29T06:53:22.676Z,21.17
2022-11-29T06:58:43.787Z,23.95
2022-11-29T07:04:05.039Z,28.27
2022-11-29T07:09:13.951Z,26.35
2022-11-29T07:14:22.405Z,27.05
2022-11-29T07:19:28.814Z,27.45
2022-11-29T07:24:41.853Z,23.58
2022-11-29T07:29:48.906Z,25.80
2022-11-29T07:34:58.574Z,27.67
2022-11-29T07:40:03.522Z,24.33
2022-11-29T07:45:13.120Z,22.50
2022-11-29T07:50:12.569Z,21.13
2022-11-29T07:55:18.497Z,22.65
2022-11-29T08:00:18.710Z,26.85
2022-11-29T08:05:21.805Z,24.42
2022-11-29T08:10:20.664Z,21.38
2022-11-29T08:15:25.148Z,21.30
2022-11-29T08:20:29.607Z,22.65
2022-11-29T08:25:30.495Z,17.95
2022-11-29T08:30:33.340Z,21.38
2022-11-29T08:35:31.816Z,24.15
2022-11-29T08:40:29.359Z,20.20
2022-11-29T08:45:28.087Z,19.23
2022-11-29T08:50:28.545Z,24.98
2022-11-29T08:55:32.094Z,25.65
2022-11-29T09:00:30.452Z,27.27
2022-11-29T09:05:30.003Z,22.10
2022-11-29T09:10:49.082Z,22.65
2022-11-29T09:15:47.168Z,20.48
2022-11-29T09:20:58.888Z,20.50
2022-11-29T09:26:02.141Z,19.38
2022-11-29T09:31:05.586Z,21.60
2022-11-29T09:36:08.833Z,19.35
2022-11-29T09:41:58.936Z,24.73
2022-11-29T09:47:17.711Z,20.83
2022-11-29T09:52:28.997Z,17.45
2022-11-29T09:57:30.073Z,17.95
2022-11-29T10:02:37.442Z,22.90
2022-11-29T10:07:44.912Z,24.80
2022-11-29T10:12:48.978Z,23.35
2022-11-29T10:17:54.087Z,38.40
2022-11-29T10:22:56.919Z,29.50
2022-11-29T10:27:55.846Z,27.52
2022-11-29T10:32:58.164Z,22.90
2022-11-29T10:38:29.852Z,18.85
2022-11-29T10:43:26.331Z,24.33
2022-11-29T10:48:33.508Z,17.73
2022-11-29T10:53:40.012Z,13.50
2022-11-29T10:58:55.732Z,16.27
2022-11-29T11:04:14.711Z,13.80
2022-11-29T11:09:54.413Z,14.25
2022-11-29T11:14:53.995Z,18.33
2022-11-29T11:20:02.843Z,16.85
2022-11-29T11:30:38.850Z,16.13
2022-11-29T11:35:45.560Z,16.00
2022-11-29T11:41:11.424Z,14.50
2022-11-29T11:46:17.683Z,13.55
2022-11-29T11:51:58.009Z,19.70
2022-11-29T11:57:09.671Z,23.80
2022-11-29T12:02:25.979Z,23.67
2022-11-29T12:07:59.780Z,17.00
2022-11-29T12:12:57.366Z,17.33
2022-11-29T12:18:09.094Z,15.02
2022-11-29T12:23:24.694Z,15.98
2022-11-29T12:28:28.647Z,18.38
2022-11-29T12:33:38.409Z,26.08
2022-11-29T12:44:18.533Z,15.40
2022-11-29T12:49:29.753Z,14.95
2022-11-29T12:54:40.492Z,13.02
2022-11-29T13:00:11.539Z,13.45
2022-11-29T13:05:19.364Z,15.05
2022-11-29T13:10:33.066Z,12.85
2022-11-29T13:15:39.845Z,11.18
2022-11-29T13:20:44.992Z,14.35
2022-11-29T13:25:48.433Z,13.50
2022-11-29T13:30:47.355Z,13.40
2022-11-29T13:35:52.944Z,14.60
2022-11-29T13:40:59.375Z,17.73
2022-11-29T13:46:06.115Z,16.60
2022-11-29T13:51:26.926Z,12.25
2022-11-29T13:56:32.245Z,10.05
2022-11-29T14:01:55.978Z,15.10
2022-11-29T14:07:12.313Z,11.18
2022-11-29T14:12:37.927Z,11.93
2022-11-29T14:17:48.615Z,12.70
2022-11-29T14:23:13.769Z,12.43
2022-11-29T14:28:39.955Z,13.27
2022-11-29T14:34:06.816Z,15.48
2022-11-29T14:39:30.976Z,15.07
2022-11-29T14:44:33.906Z,13.80
2022-11-29T14:49:40.570Z,14.18
2022-11-29T14:55:03.418Z,17.65
2022-11-29T15:00:07.282Z,14.57
2022-11-29T15:05:17.985Z,15.50
2022-11-29T15:10:21.376Z,13.82
2022-11-29T15:16:09.345Z,17.38
2022-11-29T15:21:40.862Z,18.20
2022-11-29T15:26:44.408Z,15.13
2022-11-29T15:31:47.124Z,16.65
2022-11-29T15:36:49.995Z,16.92
2022-11-29T15:42:02.078Z,17.40
2022-11-29T15:47:14.568Z,19.02
2022-11-29T15:52:20.751Z,17.77
2022-11-29T15:57:26.144Z,16.00
2022-11-29T16:02:27.261Z,20.90
2022-11-29T16:07:26.944Z,19.55
2022-11-29T16:12:24.597Z,22.80
2022-11-29T16:17:25.036Z,23.92
2022-11-29T16:22:23.710Z,22.10
2022-11-29T16:27:25.077Z,24.08
2022-11-29T16:32:29.381Z,17.60
2022-11-29T16:37:32.588Z,19.40
2022-11-29T16:42:31.908Z,20.27
2022-11-29T16:47:38.869Z,28.92
2022-11-29T16:52:47.539Z,22.10
2022-11-29T16:57:52.353Z,21.10
2022-11-29T17:02:52.703Z,24.00
2022-11-29T17:07:51.700Z,15.05
2022-11-29T17:13:05.257Z,25.38
2022-11-29T17:18:10.542Z,15.85
2022-11-29T17:23:08.937Z,18.80
2022-11-29T17:28:10.159Z,16.77
2022-11-29T17:33:07.247Z,18.17
2022-11-29T17:38:18.143Z,16.92
2022-11-29T17:44:00.133Z,22.08
2022-11-29T17:49:10.023Z,23.42
2022-11-29T17:54:12.953Z,25.13
2022-11-29T17:59:13.559Z,26.27
2022-11-29T18:04:15.612Z,22.23
2022-11-29T18:09:17.063Z,26.93
2022-11-29T18:14:16.621Z,23.00
2022-11-29T18:19:15.646Z,21.20
2022-11-29T18:24:13.235Z,25.27
2022-11-29T18:29:10.448Z,21.88
2022-11-29T18:34:12.670Z,21.88
2022-11-29T18:39:14.070Z,24.60
2022-11-29T18:44:13.310Z,24.77
2022-11-29T18:49:13.472Z,23.25
2022-11-29T18:54:24.592Z,23.92
2022-11-29T18:59:29.761Z,22.00
2022-11-29T19:04:27.805Z,23.23
2022-11-29T19:09:25.461Z,26.90
2022-11-29T19:15:13.231Z,21.38
2022-11-29T19:20:52.616Z,27.45
2022-11-29T19:26:11.388Z,25.73
2022-11-29T19:31:13.072Z,30.25
2022-11-29T19:36:13.676Z,26.60
2022-11-29T19:41:16.795Z,30.05
2022-11-29T19:46:22.212Z,22.83
2022-11-29T19:51:25.192Z,34.97
2022-11-29T19:56:23.517Z,28.55
2022-11-29T20:01:22.508Z,33.80
2022-11-29T20:06:24.265Z,23.65
2022-11-29T20:11:23.363Z,39.40
2022-11-29T20:16:24.794Z,21.40
2022-11-29T20:21:26.532Z,23.00
2022-11-29T20:26:32.776Z,24.70
2022-11-29T20:31:36.737Z,26.40
2022-11-29T20:36:46.474Z,23.53
2022-11-29T20:42:12.897Z,22.55
2022-11-29T20:47:29.560Z,23.63
2022-11-29T20:52:38.603Z,22.20
2022-11-29T20:57:42.087Z,22.67
2022-11-29T21:02:43.156Z,17.92
2022-11-29T21:07:41.240Z,26.13
2022-11-29T21:12:38.894Z,18.73
2022-11-29T21:17:40.176Z,19.60
2022-11-29T21:23:00.698Z,24.15
2022-11-29T21:28:03.559Z,19.55
2022-11-29T21:33:01.313Z,19.45
2022-11-29T21:38:00.972Z,29.60
2022-11-29T21:42:58.324Z,21.17
2022-11-29T21:47:59.400Z,31.85
2022-11-29T21:52:56.484Z,25.65
2022-11-29T21:57:54.384Z,25.48
2022-11-29T22:02:51.681Z,24.08
2022-11-29T22:07:54.806Z,23.20
2022-11-29T22:12:52.848Z,20.58
2022-11-29T22:17:51.057Z,18.55
2022-11-29T22:22:50.091Z,17.77
2022-11-29T22:27:49.739Z,20.52
2022-11-29T22:32:46.802Z,22.77
2022-11-29T22:37:45.272Z,25.05
2022-11-29T22:42:42.669Z,21.50
2022-11-29T22:47:43.087Z,26.77
2022-11-29T22:52:44.499Z,24.67
2022-11-29T22:57:42.127Z,27.42
2022-11-29T23:02:42.213Z,27.98
2022-11-29T23:07:42.398Z,21.70
2022-11-29T23:12:39.365Z,27.52
2022-11-29T23:17:36.997Z,24.73
2022-11-29T23:22:38.141Z,21.17
2022-11-29T23:27:38.056Z,27.65
2022-11-29T23:32:34.878Z,29.27
2022-11-29T23:37:33.794Z,30.48
2022-11-29T23:42:30.701Z,22.92
2022-11-29T23:47:27.573Z,28.27
2022-11-29T23:52:24.825Z,23.98
2022-11-29T23:57:22.646Z,33.75
